createdAt,value
2022-11-20T00:01:22.312Z,-5.51
2022-11-20T00:03:49.866Z,-5.64
2022-11-20T00:06:18.839Z,-5.46
2022-11-20T00:08:46.317Z,-5.53
2022-11-20T00:11:21.111Z,-5.65
2022-11-20T00:13:49.732Z,-5.78
2022-11-20T00:16:18.692Z,-5.90
2022-11-20T00:18:45.904Z,-5.83
2022-11-20T00:21:16.181Z,-5.80
2022-11-20T00:23:43.385Z,-5.80
2022-11-20T00:26:12.430Z,-5.79
2022-11-20T00:28:39.777Z,-5.79
2022-11-20T00:31:09.721Z,-5.85
2022-11-20T00:33:36.577Z,-5.98
2022-11-20T00:36:09.197Z,-5.93
2022-11-20T00:38:36.216Z,-6.01
2022-11-20T00:41:05.498Z,-6.12
2022-11-20T00:43:32.461Z,-6.00
2022-11-20T00:45:59.069Z,-5.88
2022-11-20T00:48:26.014Z,-5.99
2022-11-20T00:50:52.924Z,-5.91
2022-11-20T00:53:19.754Z,-5.94
2022-11-20T00:55:57.383Z,-5.65
2022-11-20T00:58:24.983Z,-5.74
2022-11-20T01:00:52.138Z,-5.53
2022-11-20T01:03:24.045Z,-5.31
2022-11-20T01:05:53.429Z,-5.21
2022-11-20T01:08:20.131Z,-5.32
2022-11-20T01:10:46.826Z,-5.31
2022-11-20T01:13:32.185Z,-5.24
2022-11-20T01:16:04.334Z,-5.14
2022-11-20T01:18:30.961Z,-5.31
2022-11-20T01:21:03.558Z,-5.37
2022-11-20T01:23:34.781Z,-5.28
2022-11-20T01:26:04.029Z,-5.33
2022-11-20T01:28:31.662Z,-5.25
2022-11-20T01:30:59.004Z,-5.18
2022-11-20T01:33:25.909Z,-5.18
2022-11-20T01:35:53.003Z,-5.22
2022-11-20T01:38:21.173Z,-5.38
2022-11-20T01:40:55.446Z,-5.37
2022-11-20T01:43:22.186Z,-5.33
2022-11-20T01:46:20.451Z,-5.43
2022-11-20T01:48:52.106Z,-5.40
2022-11-20T01:51:28.787Z,-5.38
2022-11-20T01:53:57.314Z,-5.26
2022-11-20T01:56:24.323Z,-5.24
2022-11-20T01:58:53.881Z,-5.26
2022-11-20T02:01:22.109Z,-5.31
2022-11-20T02:03:49.520Z,-5.06
2022-11-20T02:07:01.609Z,-5.11
2022-11-20T02:09:29.228Z,-5.10
2022-11-20T02:11:56.267Z,-5.17
2022-11-20T02:14:24.055Z,-5.06
2022-11-20T02:16:51.206Z,-4.95
2022-11-20T02:19:24.446Z,-4.86
2022-11-20T02:22:14.248Z,-4.83
2022-11-20T02:24:42.120Z,-5.04
2022-11-20T02:27:11.707Z,-5.08
2022-11-20T02:29:40.655Z,-4.90
2022-11-20T02:32:07.378Z,-4.85
2022-11-20T02:34:34.300Z,-4.97
2022-11-20T02:37:01.018Z,-4.86
2022-11-20T02:39:29.058Z,-5.09
2022-11-20T02:41:56.975Z,-5.01
2022-11-20T02:44:23.643Z,-5.00
2022-11-20T02:46:50.294Z,-4.80
2022-11-20T02:49:18.146Z,-4.73
2022-11-20T02:51:45.236Z,-4.60
2022-11-20T02:54:11.892Z,-4.70
2022-11-20T02:56:39.840Z,-4.74
2022-11-20T02:59:06.974Z,-4.67
2022-11-20T03:01:33.744Z,-4.75
2022-11-20T03:04:00.718Z,-4.65
2022-11-20T03:06:27.589Z,-4.63
2022-11-20T03:08:54.489Z,-4.82
2022-11-20T03:11:21.446Z,-4.75
2022-11-20T03:13:48.166Z,-4.64
2022-11-20T03:16:17.559Z,-4.67
2022-11-20T03:18:44.898Z,-4.65
2022-11-20T03:21:13.186Z,-4.63
2022-11-20T03:23:40.535Z,-4.78
2022-11-20T03:26:22.971Z,-4.81
2022-11-20T03:28:54.427Z,-4.90
2022-11-20T03:31:23.579Z,-4.81
2022-11-20T03:33:50.826Z,-4.88
2022-11-20T03:36:19.275Z,-4.70
2022-11-20T03:38:46.075Z,-4.57
2022-11-20T03:41:16.293Z,-4.62
2022-11-20T03:43:43.037Z,-4.59
2022-11-20T03:46:09.774Z,-4.71
2022-11-20T03:48:36.596Z,-4.64
2022-11-20T03:51:11.894Z,-4.72
2022-11-20T03:53:39.518Z,-4.44
2022-11-20T03:56:06.795Z,-4.53
2022-11-20T03:58:35.300Z,-4.72
2022-11-20T04:01:07.510Z,-4.73
2022-11-20T04:03:34.454Z,-4.53
2022-11-20T04:06:15.144Z,-4.48
2022-11-20T04:08:42.421Z,-4.64
2022-11-20T04:11:14.697Z,-4.54
2022-11-20T04:13:42.436Z,-4.72
2022-11-20T04:16:10.684Z,-4.54
2022-11-20T04:18:37.808Z,-4.63
2022-11-20T04:21:05.057Z,-4.52
2022-11-20T04:23:31.690Z,-4.62
2022-11-20T04:26:06.941Z,-4.50
2022-11-20T04:28:33.692Z,-4.66
2022-11-20T04:31:09.018Z,-4.86
2022-11-20T04:33:36.421Z,-4.77
2022-11-20T04:36:23.316Z,-4.60
2022-11-20T04:38:58.530Z,-4.59
2022-11-20T04:41:30.228Z,-4.49
2022-11-20T04:44:06.329Z,-4.44
2022-11-20T04:46:41.142Z,-4.45
2022-11-20T04:49:08.651Z,-4.39
2022-11-20T04:51:35.701Z,-4.39
2022-11-20T04:54:02.557Z,-4.35
2022-11-20T04:56:29.249Z,-4.34
2022-11-20T04:58:55.901Z,-4.29
2022-11-20T05:01:24.515Z,-4.32
2022-11-20T05:03:51.658Z,-4.31
2022-11-20T05:06:20.580Z,-4.27
2022-11-20T05:08:47.431Z,-4.34
2022-11-20T05:11:16.806Z,-4.21
2022-11-20T05:13:43.920Z,-4.22
2022-11-20T05:16:16.002Z,-4.23
2022-11-20T05:18:43.098Z,-4.32
2022-11-20T05:21:10.929Z,-4.24
2022-11-20T05:23:38.376Z,-4.25
2022-11-20T05:26:05.970Z,-4.23
2022-11-20T05:28:33.643Z,-4.21
2022-11-20T05:31:08.462Z,-4.18
2022-11-20T05:33:36.513Z,-4.18
2022-11-20T05:36:06.663Z,-4.19
2022-11-20T05:38:33.567Z,-4.18
2022-11-20T05:41:17.796Z,-4.11
2022-11-20T05:43:46.244Z,-4.06
2022-11-20T05:46:14.713Z,-3.98
2022-11-20T05:48:42.926Z,-3.91
2022-11-20T05:51:12.115Z,-3.82
2022-11-20T05:53:42.437Z,-3.73
2022-11-20T05:56:19.023Z,-3.69
2022-11-20T05:58:46.383Z,-3.61
2022-11-20T06:01:17.052Z,-3.51
2022-11-20T06:03:47.039Z,-3.44
2022-11-20T06:06:17.085Z,-3.40
2022-11-20T06:08:44.944Z,-3.38
2022-11-20T06:11:13.852Z,-3.37
2022-11-20T06:13:42.379Z,-3.34
2022-11-20T06:16:10.143Z,-3.31
2022-11-20T06:18:37.063Z,-3.35
2022-11-20T06:21:10.826Z,-3.33
2022-11-20T06:23:38.252Z,-3.36
2022-11-20T06:26:07.536Z,-3.28
2022-11-20T06:28:34.466Z,-3.23
2022-11-20T06:31:01.285Z,-3.23
2022-11-20T06:33:28.370Z,-3.28
2022-11-20T06:36:00.441Z,-3.20
2022-11-20T06:38:29.495Z,-3.19
2022-11-20T06:40:56.514Z,-3.15
2022-11-20T06:43:23.926Z,-3.13
2022-11-20T06:45:54.942Z,-3.20
2022-11-20T06:48:22.205Z,-3.22
2022-11-20T06:50:49.273Z,-3.12
2022-11-20T06:53:16.426Z,-3.05
2022-11-20T06:55:44.826Z,-3.07
2022-11-20T06:58:12.049Z,-3.11
2022-11-20T07:00:39.058Z,-3.14
2022-11-20T07:03:07.668Z,-3.30
2022-11-20T07:05:34.354Z,-3.01
2022-11-20T07:08:01.117Z,-3.03
2022-11-20T07:10:28.101Z,-2.96
2022-11-20T07:12:54.907Z,-2.91
2022-11-20T07:15:23.612Z,-2.97
2022-11-20T07:17:50.436Z,-2.94
2022-11-20T07:20:17.632Z,-2.94
2022-11-20T07:22:44.535Z,-2.90
2022-11-20T07:25:11.877Z,-2.90
2022-11-20T07:27:38.486Z,-2.91
2022-11-20T07:30:05.718Z,-2.80
2022-11-20T07:32:32.489Z,-2.69
2022-11-20T07:34:59.154Z,-2.64
2022-11-20T07:37:25.890Z,-2.61
2022-11-20T07:39:52.950Z,-2.69
2022-11-20T07:42:19.706Z,-2.60
2022-11-20T07:44:46.424Z,-2.50
2022-11-20T07:47:13.215Z,-2.56
2022-11-20T07:49:39.883Z,-2.56
2022-11-20T07:52:06.536Z,-2.52
2022-11-20T07:54:33.479Z,-2.60
2022-11-20T07:57:00.119Z,-2.63
2022-11-20T07:59:26.924Z,-2.67
2022-11-20T08:01:53.749Z,-2.63
2022-11-20T08:04:20.471Z,-2.62
2022-11-20T08:06:47.186Z,-2.64
2022-11-20T08:09:13.895Z,-2.56
2022-11-20T08:11:59.249Z,-2.49
2022-11-20T08:14:26.039Z,-2.52
2022-11-20T08:16:52.953Z,-2.44
2022-11-20T08:19:20.215Z,-2.31
2022-11-20T08:21:47.295Z,-2.40
2022-11-20T08:24:14.092Z,-2.52
2022-11-20T08:26:41.856Z,-2.48
2022-11-20T08:29:08.886Z,-2.36
2022-11-20T08:31:36.001Z,-2.40
2022-11-20T08:34:06.428Z,-2.38
2022-11-20T08:36:36.053Z,-2.43
2022-11-20T08:39:03.099Z,-2.28
2022-11-20T08:41:34.161Z,-2.26
2022-11-20T08:44:03.107Z,-2.24
2022-11-20T08:46:38.302Z,-2.33
2022-11-20T08:49:07.178Z,-2.27
2022-11-20T08:51:34.299Z,-2.36
2022-11-20T08:54:01.435Z,-2.34
2022-11-20T08:56:28.349Z,-2.23
2022-11-20T08:59:20.117Z,-2.30
2022-11-20T09:01:41.891Z,-2.31
2022-11-20T09:04:08.672Z,-2.29
2022-11-20T09:06:35.482Z,-2.22
2022-11-20T09:09:06.297Z,-2.16
2022-11-20T09:11:33.659Z,-2.32
2022-11-20T09:14:01.138Z,-2.24
2022-11-20T09:16:27.852Z,-2.30
2022-11-20T09:19:20.281Z,-2.35
2022-11-20T09:21:41.193Z,-2.44
2022-11-20T09:24:08.182Z,-2.56
2022-11-20T09:26:34.879Z,-2.39
2022-11-20T09:29:01.556Z,-2.28
2022-11-20T09:31:28.506Z,-2.25
2022-11-20T09:33:55.152Z,-2.20
2022-11-20T09:36:22.118Z,-2.23
2022-11-20T09:38:48.969Z,-2.17
2022-11-20T09:41:27.859Z,-2.26
2022-11-20T09:44:13.492Z,-2.14
2022-11-20T09:46:47.361Z,-2.35
2022-11-20T09:50:00.417Z,-2.31
2022-11-20T09:52:39.198Z,-2.24
2022-11-20T09:55:10.364Z,-2.28
2022-11-20T09:57:40.454Z,-2.41
2022-11-20T10:00:14.636Z,-2.25
2022-11-20T10:02:50.293Z,-2.38
2022-11-20T10:05:20.786Z,-2.31
2022-11-20T10:08:03.198Z,-2.29
2022-11-20T10:10:32.878Z,-2.30
2022-11-20T10:13:14.848Z,-2.36
2022-11-20T10:16:06.382Z,-2.38
2022-11-20T10:18:45.552Z,-2.31
2022-11-20T10:21:21.454Z,-2.30
2022-11-20T10:24:02.202Z,-2.27
2022-11-20T10:26:47.595Z,-2.21
2022-11-20T10:29:17.566Z,-2.31
2022-11-20T10:32:18.053Z,-2.36
2022-11-20T10:34:47.804Z,-2.25
2022-11-20T10:37:18.312Z,-2.25
2022-11-20T10:39:50.954Z,-2.24
2022-11-20T10:42:35.570Z,-2.23
2022-11-20T10:45:23.215Z,-2.24
2022-11-20T10:47:50.003Z,-2.29
2022-11-20T10:50:22.506Z,-2.31
2022-11-20T10:52:55.379Z,-2.26
2022-11-20T10:55:43.531Z,-2.33
2022-11-20T10:58:35.608Z,-2.37
2022-11-20T11:01:19.778Z,-2.28
2022-11-20T11:03:46.980Z,-2.34
2022-11-20T11:06:42.318Z,-2.33
2022-11-20T11:09:20.654Z,-2.33
2022-11-20T11:11:48.146Z,-2.30
2022-11-20T11:14:16.560Z,-2.31
2022-11-20T11:16:57.361Z,-2.36
2022-11-20T11:19:24.900Z,-2.38
2022-11-20T11:21:55.744Z,-2.31
2022-11-20T11:24:42.259Z,-2.30
2022-11-20T11:27:17.574Z,-2.30
2022-11-20T11:29:45.450Z,-2.22
2022-11-20T11:32:22.411Z,-2.23
2022-11-20T11:35:12.622Z,-2.28
2022-11-20T11:37:40.047Z,-2.29
2022-11-20T11:40:23.926Z,-2.37
2022-11-20T11:42:56.042Z,-2.29
2022-11-20T11:45:22.875Z,-2.30
2022-11-20T11:47:50.065Z,-2.28
2022-11-20T11:50:21.451Z,-2.37
2022-11-20T11:53:00.361Z,-2.33
2022-11-20T11:55:35.513Z,-2.30
2022-11-20T11:58:11.126Z,-2.26
2022-11-20T12:00:40.834Z,-2.21
2022-11-20T12:03:20.636Z,-2.30
2022-11-20T12:06:04.521Z,-2.38
2022-11-20T12:08:45.070Z,-2.36
2022-11-20T12:11:11.779Z,-2.39
2022-11-20T12:13:43.122Z,-2.35
2022-11-20T12:16:14.181Z,-2.49
2022-11-20T12:18:44.907Z,-2.41
2022-11-20T12:21:20.802Z,-2.42
2022-11-20T12:24:02.753Z,-2.49
2022-11-20T12:26:32.572Z,-2.47
2022-11-20T12:29:25.075Z,-2.47
2022-11-20T12:32:17.081Z,-2.44
2022-11-20T12:35:11.858Z,-2.47
2022-11-20T12:38:09.474Z,-2.45
2022-11-20T12:40:54.120Z,-2.46
2022-11-20T12:43:44.964Z,-2.52
2022-11-20T12:46:34.600Z,-2.51
2022-11-20T12:49:10.424Z,-2.54
2022-11-20T12:51:52.830Z,-2.51
2022-11-20T12:54:19.515Z,-2.48
2022-11-20T12:57:06.379Z,-2.56
2022-11-20T12:59:39.067Z,-2.51
2022-11-20T16:21:59.633Z,-3.19
2022-11-20T16:24:29.193Z,-3.06
2022-11-20T16:26:56.172Z,-3.12
2022-11-20T16:29:23.234Z,-3.19
2022-11-20T16:31:49.886Z,-3.10
2022-11-20T16:34:17.547Z,-3.02
2022-11-20T16:36:45.969Z,-2.95
2022-11-20T16:39:14.428Z,-2.96
2022-11-20T16:41:42.505Z,-3.04
2022-11-20T16:44:11.736Z,-3.01
2022-11-20T16:46:40.783Z,-2.94
2022-11-20T16:49:12.678Z,-3.00
2022-11-20T16:51:40.517Z,-2.98
2022-11-20T16:54:09.303Z,-2.95
2022-11-20T16:56:36.509Z,-2.95
2022-11-20T16:59:03.898Z,-2.91
2022-11-20T17:01:31.635Z,-2.91
2022-11-20T17:04:00.889Z,-2.87
2022-11-20T17:06:32.801Z,-2.97
2022-11-20T17:08:59.624Z,-2.89
2022-11-20T17:11:27.617Z,-2.85
2022-11-20T17:14:00.735Z,-2.83
2022-11-20T17:16:27.494Z,-2.91
2022-11-20T17:19:02.975Z,-2.85
2022-11-20T17:21:31.197Z,-2.82
2022-11-20T17:24:01.233Z,-2.79
2022-11-20T17:26:28.857Z,-2.78
2022-11-20T17:28:58.278Z,-2.77
2022-11-20T17:31:25.219Z,-2.79
2022-11-20T17:33:52.152Z,-2.82
2022-11-20T17:36:20.342Z,-2.82
2022-11-20T17:38:47.329Z,-2.79
2022-11-20T17:41:22.394Z,-2.81
2022-11-20T17:43:49.843Z,-2.84
2022-11-20T17:46:18.738Z,-2.83
2022-11-20T17:48:45.966Z,-2.81
2022-11-20T17:51:18.170Z,-2.82
2022-11-20T17:53:47.423Z,-2.81
2022-11-20T17:56:32.792Z,-2.79
2022-11-20T17:59:00.826Z,-2.72
2022-11-20T18:01:27.646Z,-2.76
2022-11-20T18:03:56.609Z,-2.78
2022-11-20T18:06:27.712Z,-2.82
2022-11-20T18:08:54.606Z,-2.72
2022-11-20T18:11:29.710Z,-2.73
2022-11-20T18:14:16.851Z,-2.68
2022-11-20T18:16:46.771Z,-2.71
2022-11-20T18:19:27.602Z,-2.76
2022-11-20T18:21:56.611Z,-2.79
2022-11-20T18:24:23.517Z,-2.80
2022-11-20T18:26:50.345Z,-2.76
2022-11-20T18:29:17.668Z,-2.77
2022-11-20T18:31:44.353Z,-2.75
2022-11-20T18:34:14.258Z,-2.75
2022-11-20T18:36:42.537Z,-2.73
2022-11-20T18:39:13.613Z,-2.70
2022-11-20T18:41:59.484Z,-2.68
2022-11-20T18:44:47.673Z,-2.69
2022-11-20T18:47:16.650Z,-2.69
2022-11-20T18:49:46.337Z,-2.68
2022-11-20T18:52:13.444Z,-2.82
2022-11-20T18:54:40.307Z,-2.65
2022-11-20T18:57:07.043Z,-2.66
2022-11-20T18:59:33.777Z,-2.69
2022-11-20T19:02:00.508Z,-2.69
2022-11-20T19:04:27.796Z,-2.68
2022-11-20T19:06:56.402Z,-2.71
2022-11-20T19:09:23.877Z,-2.67
2022-11-20T19:11:51.933Z,-2.71
2022-11-20T19:14:19.110Z,-2.64
2022-11-20T19:16:46.382Z,-2.65
2022-11-20T19:19:13.115Z,-2.62
2022-11-20T19:21:41.161Z,-2.60
2022-11-20T19:24:08.893Z,-2.64
2022-11-20T19:26:37.369Z,-2.69
2022-11-20T19:29:05.389Z,-2.64
2022-11-20T19:31:32.598Z,-2.57
2022-11-20T19:34:02.180Z,-2.60
2022-11-20T19:36:30.123Z,-2.61
2022-11-20T19:38:57.279Z,-2.61
2022-11-20T19:41:32.027Z,-2.60
2022-11-20T19:44:00.818Z,-2.61
2022-11-20T19:46:28.913Z,-2.63
2022-11-20T19:48:56.022Z,-2.66
2022-11-20T19:51:30.200Z,-2.61
2022-11-20T19:53:58.313Z,-2.65
2022-11-20T19:56:26.035Z,-2.60
2022-11-20T19:58:53.788Z,-2.71
2022-11-20T20:01:23.309Z,-2.62
2022-11-20T20:03:50.604Z,-2.69
2022-11-20T20:06:20.434Z,-2.66
2022-11-20T20:08:47.931Z,-2.64
2022-11-20T20:11:19.799Z,-2.66
2022-11-20T20:13:47.371Z,-2.65
2022-11-20T20:16:16.716Z,-2.64
2022-11-20T20:18:44.043Z,-2.65
2022-11-20T20:21:12.884Z,-2.64
2022-11-20T20:23:40.262Z,-2.62
2022-11-20T20:26:08.378Z,-2.63
2022-11-20T20:28:36.259Z,-2.55
2022-11-20T20:31:11.806Z,-2.58
2022-11-20T20:33:39.892Z,-2.56
2022-11-20T20:36:08.020Z,-2.58
2022-11-20T20:38:34.832Z,-2.53
2022-11-20T20:41:01.960Z,-2.58
2022-11-20T20:43:28.882Z,-2.61
2022-11-20T20:45:55.697Z,-2.59
2022-11-20T20:48:24.379Z,-2.58
2022-11-20T20:51:02.773Z,-2.60
2022-11-20T20:53:31.225Z,-2.58
2022-11-20T20:55:59.682Z,-2.59
2022-11-20T20:58:27.867Z,-2.56
2022-11-20T21:00:55.156Z,-2.58
2022-11-20T21:03:21.875Z,-2.53
2022-11-20T21:05:55.612Z,-2.49
2022-11-20T21:08:22.371Z,-2.53
2022-11-20T21:10:49.774Z,-2.58
2022-11-20T21:13:16.510Z,-2.48
2022-11-20T21:15:46.730Z,-2.47
2022-11-20T21:18:13.473Z,-2.48
2022-11-20T21:20:59.295Z,-2.51
2022-11-20T21:23:25.752Z,-2.54
2022-11-20T21:25:52.496Z,-2.54
2022-11-20T21:28:19.212Z,-2.49
2022-11-20T21:30:46.590Z,-2.53
2022-11-20T21:33:13.486Z,-2.57
2022-11-20T21:35:41.338Z,-2.52
2022-11-20T21:38:08.137Z,-2.45
2022-11-20T21:40:34.728Z,-2.52
2022-11-20T21:43:01.430Z,-2.44
2022-11-20T21:45:28.039Z,-2.47
2022-11-20T21:47:55.144Z,-2.38
2022-11-20T21:50:22.423Z,-2.46
2022-11-20T21:52:49.080Z,-2.33
2022-11-20T21:55:15.847Z,-2.26
2022-11-20T21:57:42.496Z,-2.32
2022-11-20T22:00:10.601Z,-2.35
2022-11-20T22:02:40.375Z,-2.31
2022-11-20T22:05:08.088Z,-2.30
2022-11-20T22:07:35.458Z,-2.37
2022-11-20T22:10:02.229Z,-2.39
2022-11-20T22:12:28.844Z,-2.35
2022-11-20T22:14:55.541Z,-2.39
2022-11-20T22:17:42.149Z,-2.36
2022-11-20T22:20:09.851Z,-2.52
2022-11-20T22:22:36.482Z,-2.36
2022-11-20T22:25:03.279Z,-2.31
2022-11-20T22:27:29.963Z,-2.37
2022-11-20T22:29:56.528Z,-2.40
2022-11-20T22:32:23.247Z,-2.35
2022-11-20T22:34:49.917Z,-2.40
2022-11-20T22:37:16.589Z,-2.42
2022-11-20T22:39:43.269Z,-2.42
2022-11-20T22:42:09.999Z,-2.42
2022-11-20T22:44:36.650Z,-2.40
2022-11-20T22:47:07.452Z,-2.44
2022-11-20T22:49:36.835Z,-2.41
2022-11-20T22:52:03.562Z,-2.40
2022-11-20T22:54:30.218Z,-2.40
2022-11-20T22:56:56.892Z,-2.41
2022-11-20T22:59:23.597Z,-2.36
2022-11-20T23:01:50.362Z,-2.38
2022-11-20T23:04:17.063Z,-2.36
2022-11-20T23:06:43.696Z,-2.35
2022-11-20T23:09:12.873Z,-2.36
2022-11-20T23:11:39.578Z,-2.35
2022-11-20T23:14:10.767Z,-2.35
2022-11-20T23:16:37.542Z,-2.39
2022-11-20T23:19:09.282Z,-2.31
2022-11-20T23:21:37.262Z,-2.34
2022-11-20T23:24:04.607Z,-2.33
2022-11-20T23:26:33.571Z,-2.32
2022-11-20T23:29:01.201Z,-2.33
2022-11-20T23:31:29.881Z,-2.36
2022-11-20T23:33:56.890Z,-2.37
2022-11-20T23:36:23.701Z,-2.36
2022-11-20T23:38:50.416Z,-2.29
2022-11-20T23:41:17.257Z,-2.31
2022-11-20T23:43:43.975Z,-2.33
2022-11-20T23:46:15.154Z,-2.31
2022-11-20T23:48:44.964Z,-2.23
2022-11-20T23:51:11.775Z,-2.30
2022-11-20T23:53:38.547Z,-2.27
2022-11-20T23:56:06.078Z,-2.28
2022-11-20T23:58:35.324Z,-2.29
